Time;durP1;ratioP1;P1;durP2;ratioP2;P2;SDS_P1;SDS_P2;PMS_P1;PMS_P2;Temp;Humidity;BMP_temperature;BMP_pressure;BME280_temperature;BME280_humidity;BME280_pressure;Samples;Min_cycle;Max_cycle;Signal;HPM_P1;HPM_P2
2022/12/23 00:02:06;;;;;;;0.43;0.28;;;;;;;;;;5098572;28;20043;-86
2022/12/23 00:04:37;;;;;;;0.20;0.10;;;;;;;;;;5098117;27;20112;-87
2022/12/23 00:07:05;;;;;;;0.20;0.10;;;;;;;;;;5061200;27;20519;-85
2022/12/23 00:09:50;;;;;;;0.20;0.10;;;;;;;;;;5064948;28;20512;-86
2022/12/23 00:15:06;;;;;;;0.20;0.10;;;;;;;;;;5079838;27;20039;-86
2022/12/23 00:17:33;;;;;;;0.20;0.20;;;;;;;;;;5083129;28;20071;-86
2022/12/23 00:20:02;;;;;;;0.20;0.10;;;;;;;;;;5084942;28;20126;-87
2022/12/23 00:23:05;;;;;;;0.20;0.10;;;;;;;;;;5069365;28;20088;-87
2022/12/23 00:25:43;;;;;;;0.20;0.10;;;;;;;;;;5099873;28;20038;-87
2022/12/23 00:28:19;;;;;;;0.20;0.10;;;;;;;;;;5066069;28;20043;-86
2022/12/23 00:30:55;;;;;;;0.20;0.10;;;;;;;;;;5062527;28;20058;-86
2022/12/23 00:33:37;;;;;;;0.20;0.10;;;;;;;;;;5066268;28;20070;-86
2022/12/23 00:36:19;;;;;;;0.20;0.10;;;;;;;;;;5080639;28;20039;-86
2022/12/23 00:44:23;;;;;;;0.20;0.10;;;;;;;;;;5086495;28;20055;-86
2022/12/23 00:46:50;;;;;;;0.20;0.10;;;;;;;;;;5097521;28;20074;-86
2022/12/23 00:52:02;;;;;;;0.20;0.10;;;;;;;;;;5085990;28;20047;-86
2022/12/23 00:54:28;;;;;;;0.32;0.32;;;;;;;;;;5088891;28;20485;-86
2022/12/23 00:56:55;;;;;;;0.20;0.10;;;;;;;;;;5091204;27;20114;-86
2022/12/23 00:59:24;;;;;;;0.20;0.10;;;;;;;;;;5069109;28;20093;-86
2022/12/23 01:07:39;;;;;;;0.63;0.20;;;;;;;;;;5082691;28;20113;-85
2022/12/23 01:10:10;;;;;;;0.20;0.10;;;;;;;;;;5080324;28;20047;-87
2022/12/23 01:12:42;;;;;;;0.20;0.10;;;;;;;;;;5082801;28;20097;-86
2022/12/23 01:15:20;;;;;;;0.20;0.10;;;;;;;;;;5083196;28;20127;-87
2022/12/23 01:17:55;;;;;;;0.20;0.10;;;;;;;;;;5067689;28;20032;-87
2022/12/23 01:26:20;;;;;;;0.20;0.10;;;;;;;;;;5077354;28;20101;-86
2022/12/23 01:28:54;;;;;;;2.40;0.38;;;;;;;;;;5059966;28;20126;-87
2022/12/23 01:32:16;;;;;;;0.20;0.10;;;;;;;;;;5059971;28;20044;-86
2022/12/23 01:34:50;;;;;;;0.20;0.10;;;;;;;;;;4997194;28;20532;-86
2022/12/23 01:38:15;;;;;;;0.20;0.10;;;;;;;;;;4975762;28;20130;-86
2022/12/23 01:44:52;;;;;;;0.20;0.10;;;;;;;;;;5026690;28;20043;-86
2022/12/23 01:48:09;;;;;;;0.20;0.10;;;;;;;;;;5067645;28;20052;-86
2022/12/23 01:51:11;;;;;;;1.00;0.40;;;;;;;;;;5080802;28;20500;-86
2022/12/23 01:54:14;;;;;;;0.20;0.10;;;;;;;;;;5084693;27;20052;-86
2022/12/23 01:57:09;;;;;;;0.20;0.13;;;;;;;;;;5060060;28;20128;-86
2022/12/23 02:05:44;;;;;;;0.20;0.10;;;;;;;;;;5104549;27;20115;-86
2022/12/23 02:11:21;;;;;;;0.20;0.10;;;;;;;;;;5106060;28;20117;-86
2022/12/23 02:17:02;;;;;;;0.20;0.10;;;;;;;;;;5096758;28;20246;-87
2022/12/23 02:19:55;;;;;;;0.25;0.25;;;;;;;;;;5085027;28;20480;-86
2022/12/23 02:22:45;;;;;;;0.20;0.10;;;;;;;;;;5071387;28;20130;-86
2022/12/23 02:26:36;;;;;;;0.20;0.10;;;;;;;;;;5072417;28;20077;-86
2022/12/23 02:28:49;;;;;;;0.20;0.10;;;;;;;;;;5058390;28;20142;-86
2022/12/23 02:31:24;;;;;;;0.28;0.28;;;;;;;;;;5067509;28;20142;-86
2022/12/23 02:34:30;;;;;;;0.20;0.10;;;;;;;;;;5088842;22;20081;-86
2022/12/23 02:44:42;;;;;;;0.20;0.10;;;;;;;;;;5034043;28;20083;-85
2022/12/23 02:49:46;;;;;;;0.20;0.10;;;;;;;;;;5048187;28;20067;-83
2022/12/23 02:52:13;;;;;;;0.20;0.10;;;;;;;;;;5035373;28;20025;-83
2022/12/23 02:54:43;;;;;;;0.20;0.10;;;;;;;;;;5016306;28;20033;-82
2022/12/23 02:57:11;;;;;;;0.20;0.10;;;;;;;;;;5027691;28;20045;-82
2022/12/23 02:59:40;;;;;;;0.20;0.10;;;;;;;;;;5016399;28;20052;-83
2022/12/23 03:02:06;;;;;;;0.20;0.10;;;;;;;;;;5047005;28;20040;-83
2022/12/23 03:04:32;;;;;;;0.20;0.10;;;;;;;;;;5029600;28;20029;-82
2022/12/23 03:06:59;;;;;;;0.20;0.10;;;;;;;;;;5008924;28;20098;-83
2022/12/23 03:09:28;;;;;;;0.20;0.10;;;;;;;;;;5011492;28;20123;-82
2022/12/23 03:12:04;;;;;;;0.20;0.10;;;;;;;;;;5010829;28;20044;-82
2022/12/23 03:14:39;;;;;;;0.20;0.10;;;;;;;;;;5041962;28;20047;-82
2022/12/23 03:17:20;;;;;;;0.20;0.10;;;;;;;;;;5013285;28;20037;-83
2022/12/23 03:19:58;;;;;;;0.30;0.20;;;;;;;;;;5039602;28;20041;-83
2022/12/23 03:22:40;;;;;;;0.45;0.45;;;;;;;;;;5041677;28;20752;-82
2022/12/23 03:25:11;;;;;;;0.20;0.10;;;;;;;;;;5019076;28;20081;-83
2022/12/23 03:27:42;;;;;;;0.20;0.15;;;;;;;;;;5037224;28;20033;-82
2022/12/23 03:30:11;;;;;;;0.20;0.10;;;;;;;;;;5028587;28;20056;-82
2022/12/23 03:32:40;;;;;;;0.20;0.10;;;;;;;;;;5006500;28;20492;-82
2022/12/23 03:35:07;;;;;;;0.20;0.10;;;;;;;;;;5015961;28;20044;-83
2022/12/23 03:37:35;;;;;;;0.20;0.10;;;;;;;;;;5011908;28;20043;-83
2022/12/23 03:40:05;;;;;;;0.40;0.30;;;;;;;;;;5041488;28;20037;-84
2022/12/23 03:42:34;;;;;;;0.20;0.10;;;;;;;;;;5004802;28;20040;-82
2022/12/23 03:45:02;;;;;;;0.20;0.10;;;;;;;;;;5022548;28;20041;-83
2022/12/23 03:47:34;;;;;;;0.20;0.10;;;;;;;;;;5025308;28;20507;-83
2022/12/23 03:50:02;;;;;;;0.20;0.10;;;;;;;;;;5022057;28;20067;-83
2022/12/23 03:52:32;;;;;;;0.20;0.10;;;;;;;;;;5044160;28;20140;-84
2022/12/23 03:55:01;;;;;;;0.20;0.10;;;;;;;;;;5031153;28;20158;-83
2022/12/23 03:57:34;;;;;;;0.20;0.10;;;;;;;;;;5027031;28;20063;-83
2022/12/23 04:00:00;;;;;;;;;;;;;;;;;;5060399;28;20044;-83
2022/12/23 04:02:29;;;;;;;0.20;0.10;;;;;;;;;;5060304;28;19916;-83
2022/12/23 04:05:21;;;;;;;0.20;0.10;;;;;;;;;;5027155;28;20499;-83
2022/12/23 04:08:07;;;;;;;0.20;0.10;;;;;;;;;;5038770;28;20048;-83
2022/12/23 04:10:34;;;;;;;0.20;0.10;;;;;;;;;;5011294;28;20040;-83
2022/12/23 04:13:00;;;;;;;0.40;0.40;;;;;;;;;;5044687;28;20032;-83
2022/12/23 04:15:26;;;;;;;0.20;0.10;;;;;;;;;;5043442;28;20033;-84
2022/12/23 04:17:54;;;;;;;0.20;0.10;;;;;;;;;;5041453;28;20028;-83
2022/12/23 04:20:20;;;;;;;0.20;0.10;;;;;;;;;;5040474;28;20067;-82
2022/12/23 04:22:46;;;;;;;0.20;0.10;;;;;;;;;;5041233;28;20040;-83
2022/12/23 04:25:13;;;;;;;0.20;0.10;;;;;;;;;;5058245;28;20039;-84
2022/12/23 04:27:39;;;;;;;0.20;0.20;;;;;;;;;;5032407;28;20032;-84
2022/12/23 04:30:06;;;;;;;0.20;0.10;;;;;;;;;;5042480;28;20791;-83
2022/12/23 04:32:32;;;;;;;0.20;0.10;;;;;;;;;;5039936;28;20048;-83
2022/12/23 04:34:58;;;;;;;0.20;0.10;;;;;;;;;;5031048;28;20048;-84
2022/12/23 04:37:24;;;;;;;0.20;0.10;;;;;;;;;;5041428;28;20044;-84
2022/12/23 04:39:50;;;;;;;0.20;0.10;;;;;;;;;;5025240;28;20044;-83
2022/12/23 04:42:16;;;;;;;0.20;0.10;;;;;;;;;;5042678;28;20036;-83
2022/12/23 04:44:42;;;;;;;0.20;0.10;;;;;;;;;;5025686;28;20039;-83
2022/12/23 04:47:08;;;;;;;0.20;0.08;;;;;;;;;;5025934;28;20402;-83
2022/12/23 04:49:34;;;;;;;0.20;0.10;;;;;;;;;;5023924;28;20044;-84
2022/12/23 04:52:00;;;;;;;0.20;0.20;;;;;;;;;;5021989;28;20036;-84
2022/12/23 04:54:26;;;;;;;0.20;0.10;;;;;;;;;;5043193;28;20071;-84
2022/12/23 04:56:52;;;;;;;0.20;0.10;;;;;;;;;;5053779;28;20767;-84
2022/12/23 04:59:18;;;;;;;0.38;0.30;;;;;;;;;;5040922;28;20048;-84
2022/12/23 05:01:44;;;;;;;0.20;0.10;;;;;;;;;;5049618;28;20075;-84
2022/12/23 05:04:10;;;;;;;0.20;0.10;;;;;;;;;;5039294;28;20102;-84
2022/12/23 05:06:37;;;;;;;0.28;0.20;;;;;;;;;;5022848;28;20491;-83
2022/12/23 05:09:03;;;;;;;0.20;0.10;;;;;;;;;;5018725;28;20051;-83
2022/12/23 05:11:29;;;;;;;0.20;0.10;;;;;;;;;;5038087;28;20044;-84
2022/12/23 05:13:55;;;;;;;0.20;0.10;;;;;;;;;;5038049;28;20040;-83
2022/12/23 05:16:21;;;;;;;0.30;0.22;;;;;;;;;;5038307;28;20048;-83
2022/12/23 05:18:47;;;;;;;0.20;0.20;;;;;;;;;;5032946;28;20388;-82
2022/12/23 05:21:14;;;;;;;0.30;0.30;;;;;;;;;;5046499;28;20049;-83
2022/12/23 05:23:40;;;;;;;0.20;0.10;;;;;;;;;;5052324;28;20426;-83
2022/12/23 05:26:06;;;;;;;0.20;0.10;;;;;;;;;;5047895;28;20040;-83
2022/12/23 05:28:32;;;;;;;0.20;0.10;;;;;;;;;;5043013;28;20494;-83
2022/12/23 05:31:02;;;;;;;0.20;0.10;;;;;;;;;;5055217;28;20037;-83
2022/12/23 05:33:29;;;;;;;0.20;0.10;;;;;;;;;;5042499;28;20045;-83
2022/12/23 05:35:55;;;;;;;0.20;0.10;;;;;;;;;;5016053;28;20040;-83
2022/12/23 05:38:21;;;;;;;0.20;0.10;;;;;;;;;;5033755;28;20507;-84
2022/12/23 05:40:47;;;;;;;0.20;0.10;;;;;;;;;;5052407;28;20096;-84
2022/12/23 05:43:13;;;;;;;0.20;0.10;;;;;;;;;;5028448;28;20604;-83
2022/12/23 05:45:39;;;;;;;0.20;0.10;;;;;;;;;;5037819;28;20195;-84
2022/12/23 05:48:06;;;;;;;0.20;0.10;;;;;;;;;;5055320;28;20134;-84
2022/12/23 05:50:32;;;;;;;0.20;0.10;;;;;;;;;;5034748;28;20044;-84
2022/12/23 05:52:58;;;;;;;0.20;0.10;;;;;;;;;;5047716;28;20863;-84
2022/12/23 05:55:25;;;;;;;0.20;0.10;;;;;;;;;;5030875;28;20181;-84
2022/12/23 05:57:51;;;;;;;0.20;0.10;;;;;;;;;;5045996;28;20062;-84
2022/12/23 06:00:17;;;;;;;0.20;0.10;;;;;;;;;;5029514;28;20045;-83
2022/12/23 06:02:43;;;;;;;0.20;0.10;;;;;;;;;;5025518;28;20044;-84
2022/12/23 06:05:10;;;;;;;0.20;0.08;;;;;;;;;;5047004;28;20037;-83
2022/12/23 06:07:36;;;;;;;0.20;0.10;;;;;;;;;;5020672;28;20388;-83
2022/12/23 06:10:02;;;;;;;0.20;0.10;;;;;;;;;;5033267;28;20049;-83
2022/12/23 06:12:28;;;;;;;0.20;0.10;;;;;;;;;;5047595;28;20049;-83
2022/12/23 06:14:55;;;;;;;0.20;0.13;;;;;;;;;;5045816;28;20086;-84
2022/12/23 06:17:21;;;;;;;1.00;0.30;;;;;;;;;;5033431;28;20067;-83
2022/12/23 06:19:47;;;;;;;0.20;0.10;;;;;;;;;;5029757;28;21043;-83
2022/12/23 06:22:13;;;;;;;0.20;0.10;;;;;;;;;;5029240;28;20673;-83
2022/12/23 06:24:39;;;;;;;0.20;0.17;;;;;;;;;;5036235;28;20036;-84
2022/12/23 06:27:05;;;;;;;0.20;0.10;;;;;;;;;;5050837;28;20689;-84
2022/12/23 06:29:31;;;;;;;0.20;0.20;;;;;;;;;;5050344;28;20033;-84
2022/12/23 06:31:57;;;;;;;0.20;0.10;;;;;;;;;;5012723;28;20048;-84
2022/12/23 06:34:23;;;;;;;0.20;0.10;;;;;;;;;;5011268;28;20041;-83
2022/12/23 06:36:49;;;;;;;0.40;0.15;;;;;;;;;;5011039;28;20059;-84
2022/12/23 06:39:15;;;;;;;0.20;0.10;;;;;;;;;;5021198;28;20300;-84
2022/12/23 06:41:41;;;;;;;0.52;0.52;;;;;;;;;;5053353;28;20048;-84
2022/12/23 06:44:08;;;;;;;0.20;0.10;;;;;;;;;;5037772;28;20392;-85
2022/12/23 06:46:34;;;;;;;0.20;0.10;;;;;;;;;;5019768;28;20040;-84
2022/12/23 06:49:00;;;;;;;0.85;0.85;;;;;;;;;;5024142;28;20051;-84
2022/12/23 06:51:27;;;;;;;0.20;0.10;;;;;;;;;;5037785;28;20090;-84
2022/12/23 06:53:53;;;;;;;0.20;0.10;;;;;;;;;;5051142;28;20036;-83
2022/12/23 06:56:19;;;;;;;0.20;0.10;;;;;;;;;;5043194;28;20048;-83
2022/12/23 06:58:45;;;;;;;0.20;0.10;;;;;;;;;;5041750;28;20457;-84
2022/12/23 07:01:11;;;;;;;0.20;0.10;;;;;;;;;;5027244;28;20040;-84
2022/12/23 07:03:37;;;;;;;0.20;0.10;;;;;;;;;;5029741;28;20044;-84
2022/12/23 07:06:03;;;;;;;0.20;0.10;;;;;;;;;;5038933;28;20048;-84
2022/12/23 07:08:29;;;;;;;0.20;0.10;;;;;;;;;;5021808;28;20076;-84
2022/12/23 07:10:59;;;;;;;0.20;0.10;;;;;;;;;;5024168;28;20032;-83
2022/12/23 07:13:25;;;;;;;0.20;0.10;;;;;;;;;;5042732;28;20045;-84
2022/12/23 07:15:51;;;;;;;0.20;0.10;;;;;;;;;;5028156;28;20256;-84
2022/12/23 07:18:17;;;;;;;0.20;0.10;;;;;;;;;;5017057;28;20040;-84
2022/12/23 07:20:43;;;;;;;0.20;0.10;;;;;;;;;;5034212;28;20056;-84
2022/12/23 07:23:09;;;;;;;0.20;0.10;;;;;;;;;;5031392;28;20048;-84
2022/12/23 07:25:35;;;;;;;0.20;0.10;;;;;;;;;;5059838;28;20032;-85
2022/12/23 07:28:01;;;;;;;0.20;0.10;;;;;;;;;;5040108;28;20127;-84
2022/12/23 07:30:28;;;;;;;0.20;0.08;;;;;;;;;;5030618;28;20056;-84
2022/12/23 07:32:56;;;;;;;1.98;0.90;;;;;;;;;;5039845;28;20116;-84
2022/12/23 07:35:23;;;;;;;0.20;0.10;;;;;;;;;;5047697;28;20056;-84
2022/12/23 07:37:52;;;;;;;0.20;0.10;;;;;;;;;;5054588;28;20125;-85
2022/12/23 07:40:21;;;;;;;0.20;0.10;;;;;;;;;;5035598;28;20251;-84
2022/12/23 07:42:48;;;;;;;0.20;0.10;;;;;;;;;;5050436;28;20106;-85
2022/12/23 07:45:15;;;;;;;0.20;0.10;;;;;;;;;;5046428;28;20357;-84
2022/12/23 07:47:41;;;;;;;0.20;0.10;;;;;;;;;;5036415;28;20044;-85
2022/12/23 07:50:07;;;;;;;0.20;0.10;;;;;;;;;;5052419;28;20127;-85
2022/12/23 07:52:34;;;;;;;0.20;0.10;;;;;;;;;;5051865;28;20064;-84
2022/12/23 07:55:02;;;;;;;0.20;0.20;;;;;;;;;;5046771;28;20041;-85
2022/12/23 07:57:29;;;;;;;0.20;0.10;;;;;;;;;;5057701;28;20040;-84
2022/12/23 07:59:55;;;;;;;0.20;0.10;;;;;;;;;;5044449;28;20378;-84
2022/12/23 08:02:23;;;;;;;0.20;0.10;;;;;;;;;;5061751;28;20135;-84
2022/12/23 08:04:49;;;;;;;0.20;0.10;;;;;;;;;;5071630;28;20033;-85
2022/12/23 08:07:15;;;;;;;0.20;0.10;;;;;;;;;;5056982;28;20503;-85
2022/12/23 08:09:41;;;;;;;0.20;0.10;;;;;;;;;;5065750;28;20055;-85
2022/12/23 08:12:08;;;;;;;0.20;0.10;;;;;;;;;;5058571;28;20047;-85
2022/12/23 08:14:34;;;;;;;0.20;0.10;;;;;;;;;;5079484;28;20036;-85
2022/12/23 08:17:03;;;;;;;0.20;0.10;;;;;;;;;;5068466;28;20042;-84
2022/12/23 08:19:29;;;;;;;0.45;0.45;;;;;;;;;;5056786;28;20094;-85
2022/12/23 08:21:55;;;;;;;0.38;0.35;;;;;;;;;;5064081;28;20037;-85
2022/12/23 08:24:21;;;;;;;0.20;0.10;;;;;;;;;;5036640;28;20085;-85
2022/12/23 08:26:50;;;;;;;0.20;0.10;;;;;;;;;;5035197;28;20179;-84
2022/12/23 08:29:18;;;;;;;0.20;0.10;;;;;;;;;;5063276;28;20041;-84
2022/12/23 08:31:44;;;;;;;0.20;0.10;;;;;;;;;;5050237;28;20040;-86
2022/12/23 08:34:11;;;;;;;0.43;0.25;;;;;;;;;;5047415;28;20053;-85
2022/12/23 08:36:38;;;;;;;0.20;0.10;;;;;;;;;;5051234;28;20045;-85
2022/12/23 08:39:06;;;;;;;0.20;0.10;;;;;;;;;;5034241;28;20067;-86
2022/12/23 08:41:35;;;;;;;0.22;0.22;;;;;;;;;;5051090;28;20037;-86
2022/12/23 08:44:04;;;;;;;0.20;0.10;;;;;;;;;;5033853;28;20260;-86
2022/12/23 08:46:30;;;;;;;0.20;0.10;;;;;;;;;;5033935;28;20086;-85
2022/12/23 08:48:59;;;;;;;0.20;0.10;;;;;;;;;;5075639;22;20529;-88
2022/12/23 08:51:28;;;;;;;0.20;0.10;;;;;;;;;;5055305;28;20091;-87
2022/12/23 08:53:57;;;;;;;0.20;0.10;;;;;;;;;;5059044;28;20041;-87
2022/12/23 08:56:24;;;;;;;0.20;0.10;;;;;;;;;;5061005;28;20099;-88
2022/12/23 08:58:56;;;;;;;0.20;0.10;;;;;;;;;;5040982;28;20036;-88
2022/12/23 09:01:24;;;;;;;0.85;0.20;;;;;;;;;;5043423;28;20587;-87
2022/12/23 09:03:53;;;;;;;0.20;0.10;;;;;;;;;;5058436;28;20036;-87
2022/12/23 09:06:21;;;;;;;0.20;0.10;;;;;;;;;;5039633;28;20040;-86
2022/12/23 09:08:47;;;;;;;0.20;0.10;;;;;;;;;;5054859;28;20041;-87
2022/12/23 09:11:15;;;;;;;0.20;0.10;;;;;;;;;;5059683;28;20357;-87
2022/12/23 09:13:42;;;;;;;0.20;0.10;;;;;;;;;;5049010;28;20763;-87
2022/12/23 09:16:08;;;;;;;0.20;0.10;;;;;;;;;;5053859;28;21064;-87
2022/12/23 09:18:37;;;;;;;0.20;0.10;;;;;;;;;;5051584;28;20094;-87
2022/12/23 09:21:09;;;;;;;0.20;0.10;;;;;;;;;;5057289;28;20064;-88
2022/12/23 09:23:38;;;;;;;0.20;0.10;;;;;;;;;;5039237;28;20048;-88
2022/12/23 09:26:08;;;;;;;0.20;0.10;;;;;;;;;;5037402;28;20036;-88
2022/12/23 09:28:34;;;;;;;0.20;0.10;;;;;;;;;;5037033;28;20152;-89
2022/12/23 09:31:13;;;;;;;0.20;0.10;;;;;;;;;;5056611;28;20781;-89
2022/12/23 09:33:39;;;;;;;0.20;0.10;;;;;;;;;;5036680;28;20063;-89
2022/12/23 09:36:11;;;;;;;0.20;0.10;;;;;;;;;;5058719;28;20083;-88
2022/12/23 09:38:37;;;;;;;0.20;0.10;;;;;;;;;;5073404;28;20490;-89
2022/12/23 09:41:22;;;;;;;0.20;0.10;;;;;;;;;;5060879;28;20899;-88
2022/12/23 09:44:04;;;;;;;0.20;0.10;;;;;;;;;;5045841;28;20507;-88
2022/12/23 09:46:32;;;;;;;0.20;0.10;;;;;;;;;;5037305;28;20060;-89
2022/12/23 09:49:08;;;;;;;0.20;0.10;;;;;;;;;;5063539;28;20044;-90
2022/12/23 09:51:34;;;;;;;0.20;0.10;;;;;;;;;;5047768;28;20090;-90
2022/12/23 09:54:04;;;;;;;0.20;0.10;;;;;;;;;;5044571;28;20592;-89
2022/12/23 09:56:36;;;;;;;0.20;0.10;;;;;;;;;;5061193;28;20075;-89
2022/12/23 09:59:23;;;;;;;0.20;0.10;;;;;;;;;;5044533;28;20049;-88
2022/12/23 10:01:56;;;;;;;0.20;0.10;;;;;;;;;;5058459;28;20043;-88
2022/12/23 10:04:25;;;;;;;0.20;0.15;;;;;;;;;;5059431;28;20044;-89
2022/12/23 10:07:03;;;;;;;0.20;0.10;;;;;;;;;;5061994;28;20053;-88
2022/12/23 10:09:34;;;;;;;0.20;0.10;;;;;;;;;;5058909;28;20402;-89
2022/12/23 10:12:04;;;;;;;0.20;0.20;;;;;;;;;;5049466;28;20036;-89
2022/12/23 10:14:31;;;;;;;0.20;0.10;;;;;;;;;;5052203;28;20047;-89
2022/12/23 10:17:00;;;;;;;0.20;0.10;;;;;;;;;;5046374;28;20048;-89
2022/12/23 10:19:49;;;;;;;0.20;0.10;;;;;;;;;;5036839;28;20102;-89
2022/12/23 10:22:24;;;;;;;0.20;0.10;;;;;;;;;;5050141;28;20612;-88
2022/12/23 10:24:51;;;;;;;0.20;0.10;;;;;;;;;;5039010;28;20045;-89
2022/12/23 10:27:29;;;;;;;0.20;0.10;;;;;;;;;;5059613;28;20047;-88
2022/12/23 10:29:57;;;;;;;0.20;0.10;;;;;;;;;;5042923;28;20040;-88
2022/12/23 10:32:39;;;;;;;0.20;0.10;;;;;;;;;;5036654;28;20132;-88
2022/12/23 10:35:11;;;;;;;0.20;0.10;;;;;;;;;;5037760;28;20081;-88
2022/12/23 10:37:51;;;;;;;0.20;0.10;;;;;;;;;;5037046;28;20040;-89
2022/12/23 10:40:32;;;;;;;0.20;0.10;;;;;;;;;;5055383;28;20082;-88
2022/12/23 10:43:10;;;;;;;0.20;0.10;;;;;;;;;;5041918;28;20094;-88
2022/12/23 10:45:39;;;;;;;0.20;0.10;;;;;;;;;;5034087;28;20041;-88
2022/12/23 10:48:13;;;;;;;0.57;0.30;;;;;;;;;;5039417;28;20032;-88
2022/12/23 10:51:02;;;;;;;0.20;0.10;;;;;;;;;;5043046;28;20513;-88
2022/12/23 10:53:40;;;;;;;0.20;0.10;;;;;;;;;;5059658;28;20084;-88
2022/12/23 10:56:10;;;;;;;0.20;0.10;;;;;;;;;;5040163;28;20690;-88
2022/12/23 10:58:44;;;;;;;0.20;0.10;;;;;;;;;;5037877;28;20048;-88
2022/12/23 11:01:12;;;;;;;0.20;0.10;;;;;;;;;;5040185;28;20091;-88
2022/12/23 11:03:59;;;;;;;0.20;0.10;;;;;;;;;;5077328;28;20037;-87
2022/12/23 11:06:28;;;;;;;0.20;0.10;;;;;;;;;;5045800;28;20125;-88
2022/12/23 11:08:55;;;;;;;0.20;0.10;;;;;;;;;;5068627;28;20075;-88
2022/12/23 11:11:21;;;;;;;0.20;0.10;;;;;;;;;;5049978;28;20112;-88
2022/12/23 11:13:49;;;;;;;0.20;0.03;;;;;;;;;;5047800;28;20037;-88
2022/12/23 11:16:17;;;;;;;0.20;0.10;;;;;;;;;;5056193;28;20033;-87
2022/12/23 11:19:03;;;;;;;0.20;0.10;;;;;;;;;;5063122;28;20040;-89
2022/12/23 11:21:33;;;;;;;0.20;0.10;;;;;;;;;;5059984;28;20120;-88
2022/12/23 11:24:18;;;;;;;0.20;0.10;;;;;;;;;;5067773;28;20406;-88
2022/12/23 11:26:49;;;;;;;0.20;0.10;;;;;;;;;;5059505;28;20039;-88
2022/12/23 11:29:21;;;;;;;0.20;0.10;;;;;;;;;;5038360;28;20521;-89
2022/12/23 11:31:48;;;;;;;0.20;0.10;;;;;;;;;;5053943;28;20055;-88
2022/12/23 11:34:18;;;;;;;0.20;0.10;;;;;;;;;;5036897;28;20063;-88
2022/12/23 11:36:51;;;;;;;0.20;0.10;;;;;;;;;;5036774;28;20416;-88
2022/12/23 11:39:21;;;;;;;0.20;0.10;;;;;;;;;;5037660;28;20580;-88
2022/12/23 11:42:04;;;;;;;0.20;0.10;;;;;;;;;;5058799;28;20039;-88
2022/12/23 11:44:35;;;;;;;0.20;0.10;;;;;;;;;;5043606;28;20524;-88
2022/12/23 11:47:25;;;;;;;0.20;0.10;;;;;;;;;;5044462;28;20028;-88
2022/12/23 11:49:55;;;;;;;0.20;0.08;;;;;;;;;;5042080;28;20040;-88
2022/12/23 11:52:22;;;;;;;0.90;0.35;;;;;;;;;;5058578;28;20094;-87
2022/12/23 11:54:54;;;;;;;0.20;0.10;;;;;;;;;;5059751;28;20127;-88
2022/12/23 11:57:29;;;;;;;0.20;0.10;;;;;;;;;;5038344;28;20043;-88
2022/12/23 11:59:59;;;;;;;0.20;0.10;;;;;;;;;;5058550;28;20048;-87
2022/12/23 12:02:25;;;;;;;0.20;0.10;;;;;;;;;;5060862;28;20071;-88
2022/12/23 12:04:57;;;;;;;0.25;0.15;;;;;;;;;;5058075;28;20471;-87
2022/12/23 12:07:23;;;;;;;0.20;0.10;;;;;;;;;;5059275;28;20119;-88
2022/12/23 12:09:50;;;;;;;0.20;0.10;;;;;;;;;;5039735;28;20539;-88
2022/12/23 12:12:20;;;;;;;0.20;0.10;;;;;;;;;;5043004;28;20050;-88
2022/12/23 12:14:56;;;;;;;0.20;0.10;;;;;;;;;;5056628;28;20083;-88
2022/12/23 12:17:25;;;;;;;0.20;0.10;;;;;;;;;;5041821;28;20115;-88
2022/12/23 12:19:54;;;;;;;0.20;0.10;;;;;;;;;;5063640;28;20041;-87
2022/12/23 12:22:32;;;;;;;0.20;0.00;;;;;;;;;;5046958;28;20418;-88
2022/12/23 12:24:59;;;;;;;0.20;0.10;;;;;;;;;;5060170;28;20119;-88
2022/12/23 12:27:32;;;;;;;0.20;0.10;;;;;;;;;;5047992;28;20078;-89
2022/12/23 12:30:01;;;;;;;0.20;0.10;;;;;;;;;;5037666;28;20112;-87
2022/12/23 12:32:52;;;;;;;0.20;0.10;;;;;;;;;;5042604;28;20119;-88
2022/12/23 12:35:25;;;;;;;0.20;0.10;;;;;;;;;;5059035;28;22223;-88
2022/12/23 12:37:53;;;;;;;0.20;0.10;;;;;;;;;;5039538;28;20044;-87
2022/12/23 12:40:37;;;;;;;0.20;0.10;;;;;;;;;;5041857;28;20127;-88
2022/12/23 12:43:22;;;;;;;0.30;0.28;;;;;;;;;;5059228;28;20159;-88
2022/12/23 12:45:52;;;;;;;0.20;0.10;;;;;;;;;;5054318;28;20040;-88
2022/12/23 12:48:37;;;;;;;0.20;0.10;;;;;;;;;;5042219;28;20055;-87
2022/12/23 12:51:24;;;;;;;0.20;0.10;;;;;;;;;;5056884;28;20506;-89
2022/12/23 12:53:51;;;;;;;0.20;0.10;;;;;;;;;;5039114;28;20036;-87
2022/12/23 12:56:26;;;;;;;0.20;0.10;;;;;;;;;;5035389;28;20059;-88
2022/12/23 12:58:52;;;;;;;0.20;0.10;;;;;;;;;;5033347;28;20040;-88
2022/12/23 13:01:28;;;;;;;0.20;0.10;;;;;;;;;;5046243;28;20043;-86
2022/12/23 13:04:02;;;;;;;0.20;0.10;;;;;;;;;;5044715;28;20052;-88
2022/12/23 13:06:44;;;;;;;0.20;0.10;;;;;;;;;;5038063;28;20075;-87
2022/12/23 13:09:19;;;;;;;0.20;0.10;;;;;;;;;;5042360;28;20052;-88
2022/12/23 13:11:47;;;;;;;0.20;0.10;;;;;;;;;;5057551;28;20048;-88
2022/12/23 13:14:54;;;;;;;0.47;0.20;;;;;;;;;;5042476;28;20241;-87
2022/12/23 13:17:38;;;;;;;0.20;0.10;;;;;;;;;;4967280;28;22233;-87
2022/12/23 13:20:52;;;;;;;0.20;0.10;;;;;;;;;;4965693;28;20050;-88
2022/12/23 13:23:53;;;;;;;0.20;0.10;;;;;;;;;;5021382;28;20041;-87
2022/12/23 13:26:25;;;;;;;0.20;0.10;;;;;;;;;;4980446;28;20042;-87
2022/12/23 13:29:03;;;;;;;0.43;0.22;;;;;;;;;;5052093;28;20431;-87
2022/12/23 13:31:51;;;;;;;0.20;0.10;;;;;;;;;;5044027;28;20682;-88
2022/12/23 13:34:31;;;;;;;0.20;0.10;;;;;;;;;;5057021;28;20039;-87
2022/12/23 13:37:22;;;;;;;0.20;0.10;;;;;;;;;;5054397;28;20029;-87
2022/12/23 13:40:08;;;;;;;0.20;0.10;;;;;;;;;;5055395;28;20183;-86
2022/12/23 13:42:42;;;;;;;0.20;0.10;;;;;;;;;;5041427;28;20378;-88
2022/12/23 13:45:16;;;;;;;0.20;0.10;;;;;;;;;;5043019;28;20064;-87
2022/12/23 13:48:09;;;;;;;0.20;0.10;;;;;;;;;;5062158;28;20521;-88
2022/12/23 13:50:40;;;;;;;0.20;0.10;;;;;;;;;;5051415;28;20049;-89
2022/12/23 13:53:09;;;;;;;0.20;0.10;;;;;;;;;;5030859;28;20040;-88
2022/12/23 13:56:13;;;;;;;0.20;0.10;;;;;;;;;;5005017;28;20053;-87
2022/12/23 13:58:40;;;;;;;0.20;0.10;;;;;;;;;;4989233;28;20041;-87
2022/12/23 14:01:09;;;;;;;0.20;0.10;;;;;;;;;;5045517;28;20033;-86
2022/12/23 14:03:41;;;;;;;0.20;0.10;;;;;;;;;;5031596;28;20115;-85
2022/12/23 14:06:20;;;;;;;0.20;0.10;;;;;;;;;;5044045;28;20760;-87
2022/12/23 14:08:50;;;;;;;0.20;0.10;;;;;;;;;;5064970;28;20044;-86
2022/12/23 14:11:30;;;;;;;0.20;0.10;;;;;;;;;;5046510;28;20537;-86
2022/12/23 14:14:01;;;;;;;0.20;0.10;;;;;;;;;;5029999;28;20039;-86
2022/12/23 14:16:35;;;;;;;0.20;0.10;;;;;;;;;;5045820;28;20032;-86
2022/12/23 14:19:25;;;;;;;0.20;0.10;;;;;;;;;;5028315;28;20037;-86
2022/12/23 14:22:13;;;;;;;0.20;0.10;;;;;;;;;;5043745;28;20037;-86
2022/12/23 14:24:45;;;;;;;0.20;0.10;;;;;;;;;;5020796;28;20594;-86
2022/12/23 14:27:22;;;;;;;0.20;0.10;;;;;;;;;;5026968;28;20127;-86
2022/12/23 14:29:54;;;;;;;0.20;0.10;;;;;;;;;;5064635;28;20044;-86
2022/12/23 14:32:24;;;;;;;0.20;0.10;;;;;;;;;;5030303;28;20218;-85
2022/12/23 14:35:25;;;;;;;0.20;0.10;;;;;;;;;;5042368;28;20186;-85
2022/12/23 14:38:10;;;;;;;0.20;0.10;;;;;;;;;;5010293;28;20060;-86
2022/12/23 14:40:39;;;;;;;0.20;0.10;;;;;;;;;;5045280;28;20124;-86
2022/12/23 14:43:31;;;;;;;0.20;0.10;;;;;;;;;;5035658;28;20051;-85
2022/12/23 14:46:03;;;;;;;0.20;0.10;;;;;;;;;;5047509;28;20059;-85
2022/12/23 14:48:32;;;;;;;0.20;0.20;;;;;;;;;;5052652;22;21208;-84
2022/12/23 14:50:58;;;;;;;0.20;0.10;;;;;;;;;;5062355;28;20510;-85
2022/12/23 14:53:28;;;;;;;0.20;0.10;;;;;;;;;;5073561;28;20078;-85
2022/12/23 14:56:12;;;;;;;0.20;0.10;;;;;;;;;;5076390;28;20044;-84
2022/12/23 14:58:55;;;;;;;0.20;0.20;;;;;;;;;;5076246;28;20040;-85
2022/12/23 15:01:36;;;;;;;0.20;0.10;;;;;;;;;;5073204;28;20554;-85
2022/12/23 15:04:29;;;;;;;0.20;0.10;;;;;;;;;;5073893;28;20047;-85
2022/12/23 15:06:58;;;;;;;0.20;0.10;;;;;;;;;;5076465;28;20051;-85
2022/12/23 15:09:29;;;;;;;0.20;0.10;;;;;;;;;;5073159;28;20040;-85
2022/12/23 15:11:57;;;;;;;0.20;0.10;;;;;;;;;;5074783;28;20096;-85
2022/12/23 15:14:30;;;;;;;0.20;0.10;;;;;;;;;;5079353;28;20046;-86
2022/12/23 15:16:59;;;;;;;0.20;0.10;;;;;;;;;;5061504;28;20078;-86
2022/12/23 15:19:26;;;;;;;0.20;0.10;;;;;;;;;;5088066;28;20300;-85
2022/12/23 15:22:06;;;;;;;0.20;0.10;;;;;;;;;;5086399;28;20096;-85
2022/12/23 15:24:32;;;;;;;0.20;0.10;;;;;;;;;;5060106;28;20040;-85
2022/12/23 15:26:58;;;;;;;0.20;0.10;;;;;;;;;;5063186;28;20040;-85
2022/12/23 15:29:24;;;;;;;0.20;0.10;;;;;;;;;;5071198;28;20034;-84
2022/12/23 15:31:55;;;;;;;0.20;0.10;;;;;;;;;;5073785;28;20036;-84
2022/12/23 15:34:24;;;;;;;0.20;0.10;;;;;;;;;;5050714;28;20069;-85
2022/12/23 15:36:53;;;;;;;0.20;0.10;;;;;;;;;;5081683;28;20036;-85
2022/12/23 15:39:39;;;;;;;0.20;0.10;;;;;;;;;;5097047;28;20028;-85
2022/12/23 15:42:19;;;;;;;0.20;0.10;;;;;;;;;;5067502;28;20056;-86
2022/12/23 15:44:48;;;;;;;;;;;;;;;;;;5057555;28;20052;-85
2022/12/23 15:47:24;;;;;;;0.20;0.10;;;;;;;;;;5075074;28;20286;-85
2022/12/23 15:49:51;;;;;;;0.20;0.10;;;;;;;;;;5093784;28;20056;-87
2022/12/23 15:52:21;;;;;;;0.20;0.10;;;;;;;;;;5056620;28;20048;-85
2022/12/23 15:54:58;;;;;;;0.20;0.10;;;;;;;;;;5101059;28;20093;-85
2022/12/23 15:57:27;;;;;;;0.20;0.10;;;;;;;;;;5084473;28;20043;-85
2022/12/23 15:59:53;;;;;;;0.20;0.10;;;;;;;;;;5067125;28;20165;-85
2022/12/23 16:02:24;;;;;;;0.20;0.10;;;;;;;;;;5061562;28;20298;-85
2022/12/23 16:04:55;;;;;;;0.20;0.10;;;;;;;;;;5087218;28;20115;-85